createdAt,value
2018-08-07T00:00:21.126Z,83.20
2018-08-07T00:02:50.453Z,83.10
2018-08-07T00:05:18.714Z,82.70
2018-08-07T00:07:47.826Z,82.30
2018-08-07T00:10:20.550Z,81.80
2018-08-07T00:12:48.769Z,81.30
2018-08-07T00:15:16.966Z,81.40
2018-08-07T00:17:45.183Z,81.60
2018-08-07T00:20:15.390Z,81.50
2018-08-07T00:22:44.007Z,81.80
2018-08-07T00:25:12.370Z,82.10
2018-08-07T00:27:41.060Z,82.00
2018-08-07T00:30:13.323Z,81.80
2018-08-07T00:32:41.579Z,81.20
2018-08-07T00:35:12.692Z,81.10
2018-08-07T00:37:40.906Z,81.70
2018-08-07T00:40:11.427Z,82.90
2018-08-07T00:42:39.892Z,82.90
2018-08-07T00:45:10.144Z,81.30
2018-08-07T00:47:38.419Z,81.40
2018-08-07T00:50:10.824Z,80.30
2018-08-07T00:52:38.986Z,79.80
2018-08-07T00:55:07.519Z,81.40
2018-08-07T00:57:36.058Z,81.90
2018-08-07T01:00:06.278Z,82.40
2018-08-07T01:02:34.773Z,82.80
2018-08-07T01:05:03.008Z,84.10
2018-08-07T01:07:31.251Z,84.70
2018-08-07T01:09:59.434Z,83.00
2018-08-07T01:12:27.631Z,85.50
2018-08-07T01:14:55.955Z,83.90
2018-08-07T01:17:24.145Z,84.00
2018-08-07T01:19:52.357Z,82.90
2018-08-07T01:22:20.566Z,82.30
2018-08-07T01:24:48.782Z,83.30
2018-08-07T01:27:17.003Z,85.00
2018-08-07T01:29:45.237Z,86.30
2018-08-07T01:32:13.438Z,83.40
2018-08-07T01:34:41.655Z,84.20
2018-08-07T01:37:09.865Z,86.00
2018-08-07T01:39:38.096Z,83.40
2018-08-07T01:42:06.508Z,84.60
2018-08-07T01:44:34.723Z,87.10
2018-08-07T01:47:03.006Z,86.60
2018-08-07T01:49:31.212Z,87.00
2018-08-07T01:51:59.470Z,87.30
2018-08-07T01:54:27.681Z,86.80
2018-08-07T01:56:55.901Z,87.70
2018-08-07T01:59:24.115Z,88.00
2018-08-07T02:01:52.309Z,88.90
2018-08-07T02:04:20.514Z,87.50
2018-08-07T02:06:48.718Z,88.70
2018-08-07T02:09:16.942Z,88.90
2018-08-07T02:11:45.145Z,88.30
2018-08-07T02:14:13.381Z,88.80
2018-08-07T02:16:41.575Z,89.30
2018-08-07T02:19:09.790Z,89.00
2018-08-07T02:21:37.983Z,89.40
2018-08-07T02:24:06.191Z,89.80
2018-08-07T02:26:34.391Z,89.10
2018-08-07T02:29:02.663Z,90.00
2018-08-07T02:31:30.835Z,88.90
2018-08-07T02:33:59.049Z,89.30
2018-08-07T02:36:27.243Z,89.90
2018-08-07T02:38:55.482Z,90.30
2018-08-07T02:41:23.704Z,90.60
2018-08-07T02:43:51.886Z,90.60
2018-08-07T02:46:20.112Z,90.80
2018-08-07T02:48:48.303Z,91.00
2018-08-07T02:51:16.534Z,89.70
2018-08-07T02:53:44.733Z,89.80
2018-08-07T02:56:12.960Z,89.30
2018-08-07T02:58:41.154Z,88.80
2018-08-07T03:01:09.363Z,90.30
2018-08-07T03:03:37.568Z,90.10
2018-08-07T03:06:05.804Z,90.50
2018-08-07T03:08:34.002Z,91.10
2018-08-07T03:11:02.209Z,91.10
2018-08-07T03:13:30.406Z,91.20
2018-08-07T03:15:58.609Z,91.00
2018-08-07T03:18:26.821Z,91.30
2018-08-07T03:20:55.034Z,92.00
2018-08-07T03:23:23.222Z,92.20
2018-08-07T03:25:51.491Z,91.10
2018-08-07T03:28:19.732Z,91.80
2018-08-07T03:30:47.964Z,91.90
2018-08-07T03:33:16.193Z,91.90
2018-08-07T03:35:44.415Z,92.00
2018-08-07T03:38:12.635Z,92.00
2018-08-07T03:40:40.850Z,91.80
2018-08-07T03:43:09.090Z,92.60
2018-08-07T03:45:37.305Z,92.20
2018-08-07T03:48:05.573Z,92.70
2018-08-07T03:50:33.797Z,92.50
2018-08-07T03:53:02.031Z,92.60
2018-08-07T03:55:30.459Z,92.50
2018-08-07T03:57:58.669Z,92.40
2018-08-07T04:00:26.916Z,92.70
2018-08-07T04:02:55.143Z,92.10
2018-08-07T04:05:23.373Z,92.60
2018-08-07T04:07:51.590Z,92.40
2018-08-07T04:10:20.117Z,92.20
2018-08-07T04:12:48.351Z,92.80
2018-08-07T04:15:17.715Z,93.40
2018-08-07T04:17:46.165Z,93.00
2018-08-07T04:20:16.024Z,93.10
2018-08-07T04:22:44.272Z,93.20
2018-08-07T04:25:12.533Z,92.80
2018-08-07T04:27:40.822Z,92.50
2018-08-07T04:30:12.209Z,92.90
2018-08-07T04:32:40.750Z,92.90
2018-08-07T04:35:08.965Z,92.50
2018-08-07T04:37:37.198Z,92.00
2018-08-07T04:40:06.022Z,91.80
2018-08-07T04:42:34.381Z,91.40
2018-08-07T04:45:02.595Z,91.60
2018-08-07T04:47:30.859Z,91.30
2018-08-07T04:49:59.104Z,91.10
2018-08-07T04:52:27.334Z,91.40
2018-08-07T04:54:55.594Z,90.90
2018-08-07T04:57:23.862Z,91.30
2018-08-07T04:59:52.102Z,91.00
2018-08-07T05:02:20.786Z,90.70
2018-08-07T05:04:48.998Z,90.80
2018-08-07T05:07:17.278Z,90.70
2018-08-07T05:09:45.515Z,90.80
2018-08-07T05:12:13.742Z,91.00
2018-08-07T05:14:41.986Z,90.40
2018-08-07T05:17:10.260Z,91.00
2018-08-07T05:19:38.487Z,91.20
2018-08-07T05:22:06.751Z,91.90
2018-08-07T05:24:34.986Z,91.80
2018-08-07T05:27:03.298Z,92.00
2018-08-07T05:29:31.493Z,92.30
2018-08-07T05:31:59.719Z,92.40
2018-08-07T05:34:27.932Z,92.80
2018-08-07T05:36:56.138Z,93.00
2018-08-07T05:39:24.362Z,93.10
2018-08-07T05:41:52.571Z,93.10
2018-08-07T05:44:20.992Z,93.00
2018-08-07T05:46:49.199Z,92.90
2018-08-07T05:49:17.417Z,92.90
2018-08-07T05:51:45.604Z,93.20
2018-08-07T05:54:13.814Z,93.40
2018-08-07T05:56:42.088Z,93.30
2018-08-07T05:59:10.261Z,93.50
2018-08-07T06:01:39.458Z,93.50
2018-08-07T06:04:07.673Z,93.50
2018-08-07T06:06:35.861Z,93.50
2018-08-07T06:09:05.534Z,93.60
2018-08-07T06:11:33.736Z,91.70
2018-08-07T06:14:01.944Z,92.70
2018-08-07T06:16:30.137Z,92.60
2018-08-07T06:18:58.334Z,92.60
2018-08-07T06:21:26.534Z,92.60
2018-08-07T06:23:54.750Z,92.40
2018-08-07T06:26:22.959Z,92.10
2018-08-07T06:28:51.285Z,91.30
2018-08-07T06:31:19.522Z,91.50
2018-08-07T06:33:47.733Z,91.00
2018-08-07T06:36:15.932Z,90.90
2018-08-07T06:38:44.130Z,91.00
2018-08-07T06:41:12.335Z,91.20
2018-08-07T06:43:40.533Z,91.10
2018-08-07T06:46:08.747Z,90.80
2018-08-07T06:48:36.942Z,90.90
2018-08-07T06:51:05.129Z,91.00
2018-08-07T06:53:33.343Z,91.20
2018-08-07T06:56:01.553Z,91.10
2018-08-07T06:58:29.738Z,91.70
2018-08-07T07:00:57.931Z,92.00
2018-08-07T07:03:26.137Z,91.60
2018-08-07T07:05:54.327Z,91.60
2018-08-07T07:08:22.539Z,90.70
2018-08-07T07:10:50.730Z,89.20
2018-08-07T07:13:18.939Z,89.00
2018-08-07T07:15:47.137Z,88.60
2018-08-07T07:18:15.323Z,88.10
2018-08-07T07:20:50.208Z,88.60
2018-08-07T07:23:18.354Z,86.50
2018-08-07T07:25:46.595Z,87.80
2018-08-07T07:28:14.827Z,87.80
2018-08-07T07:30:43.047Z,87.00
2018-08-07T07:33:11.250Z,87.60
2018-08-07T07:35:39.501Z,85.80
2018-08-07T07:38:07.724Z,87.80
2018-08-07T07:40:35.982Z,88.80
2018-08-07T07:43:04.212Z,88.80
2018-08-07T07:45:32.435Z,87.50
2018-08-07T07:48:00.651Z,86.40
2018-08-07T07:50:28.879Z,85.80
2018-08-07T07:52:57.132Z,85.20
2018-08-07T07:55:25.351Z,85.60
2018-08-07T07:57:53.562Z,84.90
2018-08-07T08:00:23.536Z,86.20
2018-08-07T08:02:52.149Z,86.00
2018-08-07T08:05:21.237Z,85.80
2018-08-07T08:07:49.387Z,85.00
2018-08-07T08:10:17.626Z,85.40
2018-08-07T08:12:45.855Z,85.60
2018-08-07T08:15:15.785Z,85.60
2018-08-07T08:17:45.020Z,86.80
2018-08-07T08:20:15.896Z,87.60
2018-08-07T08:22:44.147Z,85.40
2018-08-07T08:25:12.382Z,84.60
2018-08-07T08:27:40.720Z,84.30
2018-08-07T08:30:12.604Z,85.30
2018-08-07T08:32:41.018Z,85.30
2018-08-07T08:35:11.624Z,87.30
2018-08-07T08:37:40.167Z,86.20
2018-08-07T08:40:10.726Z,84.80
2018-08-07T08:42:39.679Z,85.00
2018-08-07T08:45:10.310Z,85.70
2018-08-07T08:47:38.505Z,83.50
2018-08-07T08:50:09.113Z,81.70
2018-08-07T08:52:37.482Z,82.50
2018-08-07T08:55:05.965Z,80.90
2018-08-07T08:57:34.168Z,80.10
2018-08-07T09:00:02.450Z,80.00
2018-08-07T09:02:30.981Z,80.30
2018-08-07T09:04:59.199Z,78.60
2018-08-07T09:07:27.394Z,71.80
2018-08-07T09:09:55.579Z,75.20
2018-08-07T09:12:23.798Z,76.00
2018-08-07T09:14:51.979Z,70.20
2018-08-07T09:17:20.184Z,64.20
2018-08-07T09:19:48.367Z,62.40
2018-08-07T09:22:16.556Z,57.70
2018-08-07T09:24:44.746Z,57.00
2018-08-07T09:27:12.935Z,56.80
2018-08-07T09:29:41.133Z,56.20
2018-08-07T09:32:09.350Z,56.00
2018-08-07T09:34:37.552Z,57.20
2018-08-07T09:37:05.759Z,51.60
2018-08-07T09:39:34.000Z,50.10
2018-08-07T09:42:02.145Z,48.40
2018-08-07T09:44:30.347Z,48.90
2018-08-07T09:46:58.542Z,47.20
2018-08-07T09:49:26.747Z,47.60
2018-08-07T09:51:54.951Z,45.60
2018-08-07T09:54:23.132Z,45.90
2018-08-07T09:56:51.329Z,45.30
2018-08-07T09:59:19.522Z,46.40
2018-08-07T10:01:53.015Z,46.30
2018-08-07T10:04:21.207Z,46.20
2018-08-07T10:06:49.403Z,45.90
2018-08-07T10:09:17.594Z,44.40
2018-08-07T10:11:45.825Z,44.30
2018-08-07T10:14:14.006Z,43.60
2018-08-07T10:16:42.221Z,42.90
2018-08-07T10:19:10.415Z,41.10
2018-08-07T10:21:38.699Z,42.30
2018-08-07T10:24:06.907Z,38.80
2018-08-07T10:26:35.138Z,39.70
2018-08-07T10:29:03.349Z,41.60
2018-08-07T10:31:31.546Z,39.60
2018-08-07T10:33:59.736Z,40.80
2018-08-07T10:36:27.955Z,39.40
2018-08-07T10:38:56.176Z,40.30
2018-08-07T10:41:24.406Z,38.90
2018-08-07T10:43:52.687Z,38.00
2018-08-07T10:46:20.805Z,37.30
2018-08-07T10:48:48.997Z,37.70
2018-08-07T10:51:17.207Z,37.50
2018-08-07T10:53:45.391Z,36.10
2018-08-07T10:56:13.607Z,36.90
2018-08-07T10:58:41.812Z,36.00
2018-08-07T11:01:09.993Z,36.80
2018-08-07T11:06:12.706Z,35.60
2018-08-07T11:08:40.916Z,35.30
2018-08-07T11:11:09.128Z,34.80
2018-08-07T11:13:37.329Z,34.70
2018-08-07T11:16:06.060Z,33.70
2018-08-07T11:18:34.258Z,33.80
2018-08-07T11:21:02.441Z,34.10
2018-08-07T11:23:30.641Z,34.40
2018-08-07T11:25:58.826Z,35.40
2018-08-07T11:28:27.066Z,35.50
2018-08-07T11:30:55.289Z,34.00
2018-08-07T11:33:23.517Z,34.20
2018-08-07T11:35:51.741Z,35.50
2018-08-07T11:38:19.989Z,34.80
2018-08-07T11:40:48.214Z,32.20
2018-08-07T11:43:16.433Z,32.30
2018-08-07T11:45:44.654Z,33.50
2018-08-07T11:48:12.889Z,34.10
2018-08-07T11:50:41.106Z,34.70
2018-08-07T11:53:09.317Z,34.20
2018-08-07T11:55:37.551Z,35.50
2018-08-07T11:58:06.067Z,34.80
2018-08-07T12:00:35.783Z,34.40
2018-08-07T12:03:04.515Z,33.50
2018-08-07T12:05:32.742Z,32.90
2018-08-07T12:08:01.038Z,34.10
2018-08-07T12:10:29.216Z,33.60
2018-08-07T12:12:57.425Z,34.00
2018-08-07T12:15:26.127Z,33.30
2018-08-07T12:17:54.591Z,33.20
2018-08-07T12:20:22.816Z,33.90
2018-08-07T12:22:51.043Z,33.90
2018-08-07T12:25:19.856Z,34.30
2018-08-07T12:27:48.124Z,34.40
2018-08-07T12:30:20.317Z,34.20
2018-08-07T12:32:48.518Z,34.60
2018-08-07T12:35:16.729Z,34.60
2018-08-07T12:37:44.930Z,35.60
2018-08-07T12:40:15.565Z,35.00
2018-08-07T12:42:43.809Z,34.40
2018-08-07T12:45:12.034Z,34.50
2018-08-07T12:47:40.704Z,34.40
2018-08-07T12:50:10.045Z,34.40
2018-08-07T12:52:38.291Z,35.10
2018-08-07T12:55:06.851Z,35.00
2018-08-07T12:57:35.041Z,34.40
2018-08-07T13:00:03.631Z,34.60
2018-08-07T13:02:31.838Z,34.90
2018-08-07T13:05:00.031Z,34.80
2018-08-07T13:07:28.221Z,35.80
2018-08-07T13:09:56.417Z,35.60
2018-08-07T13:12:24.634Z,36.30
2018-08-07T13:14:52.844Z,35.80
2018-08-07T13:17:21.081Z,35.60
2018-08-07T13:19:49.251Z,36.10
2018-08-07T13:22:17.777Z,36.50
2018-08-07T13:24:45.989Z,37.60
2018-08-07T13:27:14.180Z,38.20
2018-08-07T13:29:42.546Z,37.30
2018-08-07T13:32:10.771Z,37.30
2018-08-07T13:34:39.289Z,39.20
2018-08-07T13:37:07.582Z,39.20
2018-08-07T13:39:35.745Z,39.80
2018-08-07T13:42:03.966Z,38.90
2018-08-07T13:44:32.177Z,37.50
2018-08-07T13:47:00.413Z,38.00
2018-08-07T13:49:28.814Z,37.80
2018-08-07T13:51:56.883Z,37.70
2018-08-07T13:54:25.097Z,37.50
2018-08-07T13:56:53.358Z,37.70
2018-08-07T13:59:21.567Z,38.40
2018-08-07T14:01:49.799Z,37.40
2018-08-07T14:04:18.051Z,37.20
2018-08-07T14:06:52.952Z,36.90
2018-08-07T14:09:21.214Z,37.70
2018-08-07T14:11:49.457Z,36.60
2018-08-07T14:14:17.703Z,36.70
2018-08-07T14:16:45.919Z,37.40
2018-08-07T14:19:14.115Z,37.40
2018-08-07T14:21:42.373Z,37.20
2018-08-07T14:24:10.599Z,37.40
2018-08-07T14:26:38.859Z,38.50
2018-08-07T14:29:07.067Z,39.40
2018-08-07T14:31:35.284Z,38.50
2018-08-07T14:34:03.471Z,38.80
2018-08-07T14:36:31.710Z,38.40
2018-08-07T14:38:59.903Z,38.00
2018-08-07T14:41:28.093Z,38.00
2018-08-07T14:43:56.283Z,38.20
2018-08-07T14:46:24.483Z,38.00
2018-08-07T14:48:52.949Z,37.70
2018-08-07T14:51:21.153Z,37.10
2018-08-07T14:53:49.414Z,38.20
2018-08-07T14:56:17.627Z,41.90
2018-08-07T14:58:45.856Z,43.00
2018-08-07T15:01:14.115Z,44.10
2018-08-07T15:03:42.310Z,44.90
2018-08-07T15:06:10.511Z,45.60
2018-08-07T15:08:38.710Z,45.90
2018-08-07T15:11:07.000Z,46.30
2018-08-07T15:13:35.208Z,46.90
2018-08-07T15:16:03.402Z,47.30
2018-08-07T15:18:31.615Z,47.80
2018-08-07T15:21:06.503Z,47.70
2018-08-07T15:23:34.707Z,47.60
2018-08-07T15:26:02.903Z,48.00
2018-08-07T15:28:31.105Z,47.90
2018-08-07T15:30:59.402Z,48.00
2018-08-07T15:33:27.607Z,48.20
2018-08-07T15:35:55.782Z,48.80
2018-08-07T15:38:23.965Z,48.40
2018-08-07T15:40:52.151Z,48.60
2018-08-07T15:43:20.355Z,48.20
2018-08-07T15:45:48.542Z,48.70
2018-08-07T15:48:16.744Z,48.50
2018-08-07T15:50:44.926Z,48.40
2018-08-07T15:53:13.157Z,48.10
2018-08-07T15:55:41.354Z,48.20
2018-08-07T15:58:09.558Z,48.00
2018-08-07T16:00:37.761Z,47.70
2018-08-07T16:03:06.312Z,48.10
2018-08-07T16:05:34.534Z,48.20
2018-08-07T16:08:02.806Z,47.50
2018-08-07T16:10:30.999Z,47.40
2018-08-07T16:12:59.202Z,46.80
2018-08-07T16:15:27.405Z,46.90
2018-08-07T16:17:55.625Z,46.80
2018-08-07T16:20:24.090Z,46.70
2018-08-07T16:22:52.309Z,46.50
2018-08-07T16:25:21.041Z,46.70
2018-08-07T16:27:49.878Z,46.30
2018-08-07T16:30:20.427Z,46.70
2018-08-07T16:32:48.563Z,46.60
2018-08-07T16:35:17.026Z,47.50
2018-08-07T16:37:45.531Z,46.80
2018-08-07T16:40:16.091Z,47.10
2018-08-07T16:42:44.352Z,47.20
2018-08-07T16:45:14.526Z,48.30
2018-08-07T16:47:42.734Z,50.60
2018-08-07T16:50:13.012Z,51.40
2018-08-07T16:52:41.198Z,51.70
2018-08-07T16:55:10.095Z,51.90
2018-08-07T16:57:38.295Z,52.60
2018-08-07T17:00:08.263Z,53.30
2018-08-07T17:02:36.680Z,53.40
2018-08-07T17:05:06.088Z,55.00
2018-08-07T17:07:34.279Z,54.50
2018-08-07T17:10:02.488Z,54.90
2018-08-07T17:12:30.688Z,54.10
2018-08-07T17:14:58.890Z,55.50
2018-08-07T17:17:27.215Z,56.90
2018-08-07T17:19:55.424Z,56.70
2018-08-07T17:22:23.628Z,57.10
2018-08-07T17:24:51.838Z,59.00
2018-08-07T17:27:20.046Z,58.70
2018-08-07T17:29:48.279Z,59.30
2018-08-07T17:32:16.503Z,57.60
2018-08-07T17:34:44.738Z,56.60
2018-08-07T17:37:12.953Z,56.30
2018-08-07T17:39:41.255Z,55.70
2018-08-07T17:42:09.446Z,55.90
2018-08-07T17:44:37.681Z,55.50
2018-08-07T17:47:06.022Z,55.70
2018-08-07T17:49:34.315Z,56.00
2018-08-07T17:52:02.590Z,56.00
2018-08-07T17:54:30.817Z,55.90
2018-08-07T17:56:59.184Z,56.50
2018-08-07T17:59:27.475Z,56.60
2018-08-07T18:01:55.655Z,56.60
2018-08-07T18:04:23.935Z,56.50
2018-08-07T18:06:52.181Z,56.10
2018-08-07T18:09:20.406Z,56.50
2018-08-07T18:11:48.626Z,58.80
2018-08-07T18:14:16.860Z,61.20
2018-08-07T18:16:45.067Z,58.30
2018-08-07T18:19:13.275Z,58.70
2018-08-07T18:21:41.536Z,60.10
2018-08-07T18:24:09.761Z,63.50
2018-08-07T18:26:37.981Z,63.30
2018-08-07T18:29:06.324Z,64.80
2018-08-07T18:31:34.515Z,65.70
2018-08-07T18:34:02.718Z,65.80
2018-08-07T18:36:30.903Z,67.30
2018-08-07T18:38:59.151Z,68.80
2018-08-07T18:41:27.378Z,69.40
2018-08-07T18:43:55.533Z,68.90
2018-08-07T18:46:23.754Z,69.60
2018-08-07T18:48:51.946Z,73.00
2018-08-07T18:51:20.191Z,72.00
2018-08-07T18:53:48.351Z,73.10
2018-08-07T18:56:16.551Z,72.80
2018-08-07T18:58:44.728Z,74.80
2018-08-07T19:01:12.939Z,75.80
2018-08-07T19:03:41.213Z,75.50
2018-08-07T19:06:09.359Z,75.00
2018-08-07T19:08:37.703Z,75.40
2018-08-07T19:11:06.155Z,74.70
2018-08-07T19:13:34.349Z,76.60
2018-08-07T19:16:02.563Z,77.60
2018-08-07T19:18:31.123Z,75.70
2018-08-07T19:20:59.333Z,76.10
2018-08-07T19:23:27.543Z,75.20
2018-08-07T19:28:30.292Z,75.90
2018-08-07T19:30:58.533Z,75.80
2018-08-07T19:33:26.762Z,76.40
2018-08-07T19:35:54.984Z,76.40
2018-08-07T19:38:23.214Z,76.60
2018-08-07T19:40:51.450Z,77.20
2018-08-07T19:43:19.676Z,77.50
2018-08-07T19:45:47.969Z,79.00
2018-08-07T19:48:16.133Z,79.40
2018-08-07T19:50:44.379Z,78.80
2018-08-07T19:53:12.618Z,79.50
2018-08-07T19:55:40.956Z,79.30
2018-08-07T19:58:09.118Z,80.80
2018-08-07T20:00:37.367Z,79.70
2018-08-07T20:03:05.628Z,81.40
2018-08-07T20:05:33.824Z,81.60
2018-08-07T20:08:02.062Z,82.80
2018-08-07T20:10:30.285Z,80.90
2018-08-07T20:12:58.507Z,78.60
2018-08-07T20:15:27.954Z,80.40
2018-08-07T20:17:56.590Z,82.70
2018-08-07T20:20:25.249Z,82.40
2018-08-07T20:22:53.825Z,81.80
2018-08-07T20:25:22.112Z,83.60
2018-08-07T20:27:50.335Z,83.60
2018-08-07T20:30:19.872Z,82.40
2018-08-07T20:32:49.166Z,82.20
2018-08-07T20:35:17.379Z,82.70
2018-08-07T20:37:45.600Z,83.70
2018-08-07T20:40:22.281Z,84.00
2018-08-07T20:42:50.795Z,83.40
2018-08-07T20:45:19.698Z,84.00
2018-08-07T20:47:47.920Z,84.20
2018-08-07T20:50:19.519Z,83.30
2018-08-07T20:52:47.803Z,84.00
2018-08-07T20:55:16.301Z,84.70
2018-08-07T20:57:44.554Z,85.60
2018-08-07T21:00:17.850Z,85.30
2018-08-07T21:02:46.156Z,85.80
2018-08-07T21:05:14.373Z,81.10
2018-08-07T21:07:42.623Z,80.80
2018-08-07T21:10:12.849Z,80.10
2018-08-07T21:12:41.146Z,78.80
2018-08-07T21:15:10.147Z,79.90
2018-08-07T21:17:38.407Z,81.50
2018-08-07T21:20:08.741Z,80.60
2018-08-07T21:22:36.970Z,79.80
2018-08-07T21:25:08.005Z,83.20
2018-08-07T21:27:36.228Z,83.20
2018-08-07T21:30:06.490Z,82.50
2018-08-07T21:32:34.736Z,84.20
2018-08-07T21:35:03.034Z,81.90
2018-08-07T21:37:31.235Z,81.00
2018-08-07T21:39:59.466Z,82.10
2018-08-07T21:42:27.661Z,81.20
2018-08-07T21:44:55.932Z,80.60
2018-08-07T21:47:24.144Z,81.00
2018-08-07T21:49:52.337Z,79.70
2018-08-07T21:52:20.545Z,80.40
2018-08-07T21:55:27.158Z,79.80
2018-08-07T21:57:55.353Z,79.70
2018-08-07T22:00:30.648Z,79.50
2018-08-07T22:02:58.860Z,80.40
2018-08-07T22:05:27.046Z,80.10
2018-08-07T22:07:55.259Z,80.00
2018-08-07T22:10:23.483Z,81.10
2018-08-07T22:12:51.687Z,79.60
2018-08-07T22:15:20.526Z,80.70
2018-08-07T22:17:48.766Z,80.70
2018-08-07T22:20:16.987Z,80.50
2018-08-07T22:22:45.169Z,82.00
2018-08-07T22:25:13.467Z,82.10
2018-08-07T22:27:41.686Z,81.60
2018-08-07T22:30:17.138Z,82.20
2018-08-07T22:32:45.363Z,82.00
2018-08-07T22:35:13.586Z,84.00
2018-08-07T22:37:41.802Z,83.60
2018-08-07T22:40:10.837Z,82.60
2018-08-07T22:42:39.083Z,82.70
2018-08-07T22:45:11.981Z,85.00
2018-08-07T22:47:40.586Z,82.30
2018-08-07T22:50:10.104Z,83.40
2018-08-07T22:52:38.347Z,84.60
2018-08-07T22:55:08.409Z,84.20
2018-08-07T22:57:36.625Z,83.40
2018-08-07T23:00:08.023Z,83.90
2018-08-07T23:02:36.181Z,82.80
2018-08-07T23:05:04.962Z,83.00
2018-08-07T23:07:33.165Z,82.70
2018-08-07T23:10:01.376Z,83.50
2018-08-07T23:12:29.578Z,84.20
2018-08-07T23:14:57.775Z,83.20
2018-08-07T23:17:25.974Z,83.50
2018-08-07T23:19:54.175Z,82.30
2018-08-07T23:22:22.365Z,83.00
2018-08-07T23:24:50.568Z,82.70
2018-08-07T23:27:19.138Z,82.40
2018-08-07T23:29:54.009Z,84.40
2018-08-07T23:32:22.213Z,84.70
2018-08-07T23:34:50.414Z,84.90
2018-08-07T23:37:18.676Z,85.70
2018-08-07T23:39:46.874Z,84.50
2018-08-07T23:42:15.065Z,85.80
2018-08-07T23:44:43.282Z,85.90
2018-08-07T23:47:11.602Z,86.80
2018-08-07T23:49:39.810Z,86.70
2018-08-07T23:52:08.025Z,87.80
2018-08-07T23:54:36.231Z,87.60
2018-08-07T23:57:04.449Z,87.10
2018-08-07T23:59:32.900Z,87.10
